sensor_id;sensor_type;location;lat;lon;timestamp;temperature;humidity
35613;DHT22;22054;51.646;7.078;2022-08-25T00:01:00;23.60;99.90
35613;DHT22;22054;51.646;7.078;2022-08-25T00:03:25;23.50;99.90
35613;DHT22;22054;51.646;7.078;2022-08-25T00:05:51;23.50;99.90
35613;DHT22;22054;51.646;7.078;2022-08-25T00:08:17;23.40;99.90
35613;DHT22;22054;51.646;7.078;2022-08-25T00:10:42;23.40;99.90
35613;DHT22;22054;51.646;7.078;2022-08-25T00:13:08;23.30;99.90
35613;DHT22;22054;51.646;7.078;2022-08-25T00:15:37;23.30;99.90
35613;DHT22;22054;51.646;7.078;2022-08-25T00:18:02;23.40;99.90
35613;DHT22;22054;51.646;7.078;2022-08-25T00:20:29;23.20;99.90
35613;DHT22;22054;51.646;7.078;2022-08-25T00:22:55;23.00;99.90
35613;DHT22;22054;51.646;7.078;2022-08-25T00:25:21;23.10;99.90
35613;DHT22;22054;51.646;7.078;2022-08-25T00:27:48;23.10;99.90
35613;DHT22;22054;51.646;7.078;2022-08-25T00:30:15;22.90;99.90
35613;DHT22;22054;51.646;7.078;2022-08-25T00:32:41;23.10;99.90
35613;DHT22;22054;51.646;7.078;2022-08-25T00:35:07;23.10;99.90
35613;DHT22;22054;51.646;7.078;2022-08-25T00:37:33;23.10;99.90
35613;DHT22;22054;51.646;7.078;2022-08-25T00:40:00;23.10;99.90
35613;DHT22;22054;51.646;7.078;2022-08-25T00:42:29;23.00;99.90
35613;DHT22;22054;51.646;7.078;2022-08-25T00:44:55;23.00;99.90
35613;DHT22;22054;51.646;7.078;2022-08-25T00:47:22;23.10;99.90
35613;DHT22;22054;51.646;7.078;2022-08-25T00:49:50;23.00;99.90
35613;DHT22;22054;51.646;7.078;2022-08-25T00:52:19;22.90;99.90
35613;DHT22;22054;51.646;7.078;2022-08-25T00:58:27;23.00;99.90
35613;DHT22;22054;51.646;7.078;2022-08-25T01:00:55;22.90;99.90
35613;DHT22;22054;51.646;7.078;2022-08-25T01:03:22;22.90;99.90
35613;DHT22;22054;51.646;7.078;2022-08-25T01:05:51;22.90;99.90
35613;DHT22;22054;51.646;7.078;2022-08-25T01:08:18;22.80;99.90
35613;DHT22;22054;51.646;7.078;2022-08-25T01:10:46;22.80;99.90
35613;DHT22;22054;51.646;7.078;2022-08-25T01:13:14;22.80;99.90
35613;DHT22;22054;51.646;7.078;2022-08-25T01:15:47;22.80;99.90
35613;DHT22;22054;51.646;7.078;2022-08-25T01:18:13;22.80;99.90
35613;DHT22;22054;51.646;7.078;2022-08-25T01:20:40;22.80;99.90
35613;DHT22;22054;51.646;7.078;2022-08-25T01:23:06;22.70;99.90
35613;DHT22;22054;51.646;7.078;2022-08-25T01:28:09;22.60;99.90
35613;DHT22;22054;51.646;7.078;2022-08-25T01:30:35;22.60;99.90
35613;DHT22;22054;51.646;7.078;2022-08-25T01:33:04;22.50;1.00
35613;DHT22;22054;51.646;7.078;2022-08-25T01:35:31;22.50;1.00
35613;DHT22;22054;51.646;7.078;2022-08-25T01:37:58;22.50;99.90
35613;DHT22;22054;51.646;7.078;2022-08-25T01:40:25;22.50;1.00
35613;DHT22;22054;51.646;7.078;2022-08-25T01:45:19;22.40;99.90
35613;DHT22;22054;51.646;7.078;2022-08-25T01:47:45;22.50;99.90
35613;DHT22;22054;51.646;7.078;2022-08-25T01:50:11;22.40;1.00
35613;DHT22;22054;51.646;7.078;2022-08-25T01:52:44;22.40;99.90
35613;DHT22;22054;51.646;7.078;2022-08-25T01:55:11;22.40;99.90
35613;DHT22;22054;51.646;7.078;2022-08-25T01:57:37;22.40;1.00
35613;DHT22;22054;51.646;7.078;2022-08-25T02:00:08;22.40;1.00
35613;DHT22;22054;51.646;7.078;2022-08-25T02:02:36;22.30;1.00
35613;DHT22;22054;51.646;7.078;2022-08-25T02:05:03;22.20;1.00
35613;DHT22;22054;51.646;7.078;2022-08-25T02:07:30;22.20;1.00
35613;DHT22;22054;51.646;7.078;2022-08-25T02:09:56;22.20;1.00
35613;DHT22;22054;51.646;7.078;2022-08-25T02:12:22;22.10;1.00
35613;DHT22;22054;51.646;7.078;2022-08-25T02:14:47;21.90;1.00
35613;DHT22;22054;51.646;7.078;2022-08-25T02:17:13;22.10;1.00
35613;DHT22;22054;51.646;7.078;2022-08-25T02:19:38;22.10;1.00
35613;DHT22;22054;51.646;7.078;2022-08-25T02:22:04;22.10;1.00
35613;DHT22;22054;51.646;7.078;2022-08-25T02:24:30;22.00;1.00
35613;DHT22;22054;51.646;7.078;2022-08-25T02:26:56;22.10;1.00
35613;DHT22;22054;51.646;7.078;2022-08-25T02:29:22;22.00;1.00
35613;DHT22;22054;51.646;7.078;2022-08-25T02:31:48;22.00;1.00
35613;DHT22;22054;51.646;7.078;2022-08-25T02:34:13;21.90;1.00
35613;DHT22;22054;51.646;7.078;2022-08-25T02:36:40;21.90;1.00
35613;DHT22;22054;51.646;7.078;2022-08-25T02:39:06;21.90;1.00
35613;DHT22;22054;51.646;7.078;2022-08-25T02:41:33;21.90;1.00
35613;DHT22;22054;51.646;7.078;2022-08-25T02:44:00;21.80;1.00
35613;DHT22;22054;51.646;7.078;2022-08-25T02:46:26;21.60;1.00
35613;DHT22;22054;51.646;7.078;2022-08-25T02:48:52;21.80;1.00
35613;DHT22;22054;51.646;7.078;2022-08-25T02:51:18;21.80;1.00
35613;DHT22;22054;51.646;7.078;2022-08-25T02:53:45;21.80;1.00
35613;DHT22;22054;51.646;7.078;2022-08-25T02:56:11;21.80;1.00
35613;DHT22;22054;51.646;7.078;2022-08-25T02:58:38;21.80;1.00
35613;DHT22;22054;51.646;7.078;2022-08-25T03:01:04;21.70;1.00
35613;DHT22;22054;51.646;7.078;2022-08-25T03:03:31;21.60;1.00
35613;DHT22;22054;51.646;7.078;2022-08-25T03:05:57;21.60;1.00
35613;DHT22;22054;51.646;7.078;2022-08-25T03:08:23;21.60;1.00
35613;DHT22;22054;51.646;7.078;2022-08-25T03:10:49;21.50;1.00
35613;DHT22;22054;51.646;7.078;2022-08-25T03:13:15;21.50;1.00
35613;DHT22;22054;51.646;7.078;2022-08-25T03:15:41;21.30;1.00
35613;DHT22;22054;51.646;7.078;2022-08-25T03:18:08;21.40;99.90
35613;DHT22;22054;51.646;7.078;2022-08-25T03:20:36;21.40;1.00
35613;DHT22;22054;51.646;7.078;2022-08-25T03:23:03;21.40;95.10
35613;DHT22;22054;51.646;7.078;2022-08-25T03:25:30;21.40;1.00
35613;DHT22;22054;51.646;7.078;2022-08-25T03:28:14;21.10;99.90
35613;DHT22;22054;51.646;7.078;2022-08-25T03:30:40;21.30;99.90
35613;DHT22;22054;51.646;7.078;2022-08-25T03:33:06;21.20;99.90
35613;DHT22;22054;51.646;7.078;2022-08-25T03:35:32;21.10;99.90
35613;DHT22;22054;51.646;7.078;2022-08-25T03:37:58;21.40;1.00
35613;DHT22;22054;51.646;7.078;2022-08-25T03:40:24;21.10;1.00
35613;DHT22;22054;51.646;7.078;2022-08-25T03:42:50;21.10;1.00
35613;DHT22;22054;51.646;7.078;2022-08-25T03:45:17;21.00;99.90
35613;DHT22;22054;51.646;7.078;2022-08-25T03:47:44;21.00;99.90
35613;DHT22;22054;51.646;7.078;2022-08-25T03:50:12;21.00;99.90
35613;DHT22;22054;51.646;7.078;2022-08-25T03:52:38;21.00;1.00
35613;DHT22;22054;51.646;7.078;2022-08-25T03:55:05;21.00;99.90
35613;DHT22;22054;51.646;7.078;2022-08-25T03:57:32;21.00;99.90
35613;DHT22;22054;51.646;7.078;2022-08-25T03:59:57;21.10;99.90
35613;DHT22;22054;51.646;7.078;2022-08-25T04:02:23;20.90;99.90
35613;DHT22;22054;51.646;7.078;2022-08-25T04:04:49;20.90;1.00
35613;DHT22;22054;51.646;7.078;2022-08-25T04:07:14;20.80;1.00
35613;DHT22;22054;51.646;7.078;2022-08-25T04:09:40;20.90;1.00
35613;DHT22;22054;51.646;7.078;2022-08-25T04:12:06;21.10;99.90
35613;DHT22;22054;51.646;7.078;2022-08-25T04:14:31;20.80;1.00
35613;DHT22;22054;51.646;7.078;2022-08-25T04:16:57;20.80;1.00
35613;DHT22;22054;51.646;7.078;2022-08-25T04:19:23;20.80;99.90
35613;DHT22;22054;51.646;7.078;2022-08-25T04:21:48;20.80;99.90
35613;DHT22;22054;51.646;7.078;2022-08-25T04:24:14;20.80;1.00
35613;DHT22;22054;51.646;7.078;2022-08-25T04:26:41;20.70;1.00
35613;DHT22;22054;51.646;7.078;2022-08-25T04:29:10;20.70;1.00
35613;DHT22;22054;51.646;7.078;2022-08-25T04:31:38;20.70;1.00
35613;DHT22;22054;51.646;7.078;2022-08-25T04:34:04;20.60;1.00
35613;DHT22;22054;51.646;7.078;2022-08-25T04:36:30;20.60;1.00
35613;DHT22;22054;51.646;7.078;2022-08-25T04:38:56;20.60;1.00
35613;DHT22;22054;51.646;7.078;2022-08-25T04:41:22;20.50;1.00
35613;DHT22;22054;51.646;7.078;2022-08-25T04:43:48;20.50;1.00
35613;DHT22;22054;51.646;7.078;2022-08-25T04:46:19;20.50;1.00
35613;DHT22;22054;51.646;7.078;2022-08-25T04:48:47;20.50;1.00
35613;DHT22;22054;51.646;7.078;2022-08-25T04:51:15;20.50;1.00
35613;DHT22;22054;51.646;7.078;2022-08-25T04:53:43;20.60;1.00
35613;DHT22;22054;51.646;7.078;2022-08-25T04:56:10;20.60;1.00
35613;DHT22;22054;51.646;7.078;2022-08-25T04:58:38;20.50;1.00
35613;DHT22;22054;51.646;7.078;2022-08-25T05:01:18;20.60;1.00
35613;DHT22;22054;51.646;7.078;2022-08-25T05:03:46;20.60;1.00
35613;DHT22;22054;51.646;7.078;2022-08-25T05:06:16;20.60;1.00
35613;DHT22;22054;51.646;7.078;2022-08-25T05:08:42;20.60;1.00
35613;DHT22;22054;51.646;7.078;2022-08-25T05:11:09;20.70;1.00
35613;DHT22;22054;51.646;7.078;2022-08-25T05:13:37;20.70;1.00
35613;DHT22;22054;51.646;7.078;2022-08-25T05:16:03;20.80;1.00
35613;DHT22;22054;51.646;7.078;2022-08-25T05:18:29;20.70;1.00
35613;DHT22;22054;51.646;7.078;2022-08-25T05:20:56;20.80;1.00
35613;DHT22;22054;51.646;7.078;2022-08-25T05:23:26;20.80;1.00
35613;DHT22;22054;51.646;7.078;2022-08-25T05:25:52;20.80;1.00
35613;DHT22;22054;51.646;7.078;2022-08-25T05:28:18;21.00;1.00
35613;DHT22;22054;51.646;7.078;2022-08-25T05:30:44;20.90;1.00
35613;DHT22;22054;51.646;7.078;2022-08-25T05:33:11;20.80;1.00
35613;DHT22;22054;51.646;7.078;2022-08-25T05:35:37;20.90;1.00
35613;DHT22;22054;51.646;7.078;2022-08-25T05:38:04;21.00;1.00
35613;DHT22;22054;51.646;7.078;2022-08-25T05:40:30;21.10;1.00
35613;DHT22;22054;51.646;7.078;2022-08-25T05:42:56;21.00;1.00
35613;DHT22;22054;51.646;7.078;2022-08-25T05:45:22;21.10;1.00
35613;DHT22;22054;51.646;7.078;2022-08-25T05:47:47;21.20;1.00
35613;DHT22;22054;51.646;7.078;2022-08-25T05:50:13;21.20;1.00
35613;DHT22;22054;51.646;7.078;2022-08-25T05:52:39;21.10;1.00
35613;DHT22;22054;51.646;7.078;2022-08-25T05:55:05;21.40;1.00
35613;DHT22;22054;51.646;7.078;2022-08-25T05:57:32;21.40;1.00
35613;DHT22;22054;51.646;7.078;2022-08-25T05:59:58;21.40;1.00
35613;DHT22;22054;51.646;7.078;2022-08-25T06:02:23;21.70;1.00
35613;DHT22;22054;51.646;7.078;2022-08-25T06:05:15;21.60;1.00
35613;DHT22;22054;51.646;7.078;2022-08-25T06:07:43;21.70;1.00
35613;DHT22;22054;51.646;7.078;2022-08-25T06:10:10;21.70;1.00
35613;DHT22;22054;51.646;7.078;2022-08-25T06:12:37;21.60;1.00
35613;DHT22;22054;51.646;7.078;2022-08-25T06:15:03;21.80;1.00
35613;DHT22;22054;51.646;7.078;2022-08-25T06:17:29;21.90;1.00
35613;DHT22;22054;51.646;7.078;2022-08-25T06:19:55;22.00;1.00
35613;DHT22;22054;51.646;7.078;2022-08-25T06:22:21;22.10;1.00
35613;DHT22;22054;51.646;7.078;2022-08-25T06:24:46;22.20;99.90
35613;DHT22;22054;51.646;7.078;2022-08-25T06:27:12;22.30;99.90
35613;DHT22;22054;51.646;7.078;2022-08-25T06:29:38;22.40;1.00
35613;DHT22;22054;51.646;7.078;2022-08-25T06:32:04;22.50;99.90
35613;DHT22;22054;51.646;7.078;2022-08-25T06:34:30;22.60;99.90
35613;DHT22;22054;51.646;7.078;2022-08-25T06:36:55;22.70;99.90
35613;DHT22;22054;51.646;7.078;2022-08-25T06:39:21;22.80;99.90
35613;DHT22;22054;51.646;7.078;2022-08-25T06:41:51;22.90;99.90
35613;DHT22;22054;51.646;7.078;2022-08-25T06:44:20;23.00;99.90
35613;DHT22;22054;51.646;7.078;2022-08-25T06:46:47;23.00;99.90
35613;DHT22;22054;51.646;7.078;2022-08-25T06:49:12;23.10;89.30
35613;DHT22;22054;51.646;7.078;2022-08-25T06:51:38;23.20;1.00
35613;DHT22;22054;51.646;7.078;2022-08-25T06:54:06;23.20;15.60
35613;DHT22;22054;51.646;7.078;2022-08-25T06:56:33;23.30;1.00
35613;DHT22;22054;51.646;7.078;2022-08-25T06:59:00;23.40;1.00
35613;DHT22;22054;51.646;7.078;2022-08-25T07:01:27;23.50;1.00
35613;DHT22;22054;51.646;7.078;2022-08-25T07:03:53;23.60;1.00
35613;DHT22;22054;51.646;7.078;2022-08-25T07:06:21;23.70;1.00
35613;DHT22;22054;51.646;7.078;2022-08-25T07:08:48;23.70;1.00
35613;DHT22;22054;51.646;7.078;2022-08-25T07:11:14;23.90;1.00
35613;DHT22;22054;51.646;7.078;2022-08-25T07:13:40;23.90;1.00
35613;DHT22;22054;51.646;7.078;2022-08-25T07:16:06;24.20;1.00
35613;DHT22;22054;51.646;7.078;2022-08-25T07:18:32;24.00;1.00
35613;DHT22;22054;51.646;7.078;2022-08-25T07:20:57;24.20;1.00
35613;DHT22;22054;51.646;7.078;2022-08-25T07:23:23;24.30;1.00
35613;DHT22;22054;51.646;7.078;2022-08-25T07:25:50;24.40;1.00
35613;DHT22;22054;51.646;7.078;2022-08-25T07:28:17;24.50;1.00
35613;DHT22;22054;51.646;7.078;2022-08-25T07:30:43;24.40;1.00
35613;DHT22;22054;51.646;7.078;2022-08-25T07:33:09;24.70;1.00
35613;DHT22;22054;51.646;7.078;2022-08-25T07:35:35;24.90;1.00
35613;DHT22;22054;51.646;7.078;2022-08-25T07:38:02;25.10;1.00
35613;DHT22;22054;51.646;7.078;2022-08-25T07:40:30;25.10;1.00
35613;DHT22;22054;51.646;7.078;2022-08-25T07:42:58;25.20;1.00
35613;DHT22;22054;51.646;7.078;2022-08-25T07:45:31;25.20;1.00
35613;DHT22;22054;51.646;7.078;2022-08-25T07:48:02;25.30;1.00
35613;DHT22;22054;51.646;7.078;2022-08-25T07:50:30;25.40;1.00
35613;DHT22;22054;51.646;7.078;2022-08-25T07:52:56;25.40;1.00
35613;DHT22;22054;51.646;7.078;2022-08-25T07:55:23;25.60;1.00
35613;DHT22;22054;51.646;7.078;2022-08-25T07:57:51;25.80;99.90
35613;DHT22;22054;51.646;7.078;2022-08-25T08:00:17;25.70;99.90
35613;DHT22;22054;51.646;7.078;2022-08-25T08:02:43;25.70;99.90
35613;DHT22;22054;51.646;7.078;2022-08-25T08:05:10;25.90;99.90
35613;DHT22;22054;51.646;7.078;2022-08-25T08:07:36;26.00;99.90
35613;DHT22;22054;51.646;7.078;2022-08-25T08:10:03;26.10;99.90
35613;DHT22;22054;51.646;7.078;2022-08-25T08:12:30;26.20;99.90
35613;DHT22;22054;51.646;7.078;2022-08-25T08:14:57;26.30;99.90
35613;DHT22;22054;51.646;7.078;2022-08-25T08:17:23;26.80;99.90
35613;DHT22;22054;51.646;7.078;2022-08-25T08:19:48;26.60;99.90
35613;DHT22;22054;51.646;7.078;2022-08-25T08:22:14;26.80;99.90
35613;DHT22;22054;51.646;7.078;2022-08-25T08:24:40;26.90;99.90
35613;DHT22;22054;51.646;7.078;2022-08-25T08:27:08;27.00;99.90
35613;DHT22;22054;51.646;7.078;2022-08-25T08:29:35;27.10;99.90
35613;DHT22;22054;51.646;7.078;2022-08-25T08:32:02;27.20;99.90
35613;DHT22;22054;51.646;7.078;2022-08-25T08:34:30;27.30;99.90
35613;DHT22;22054;51.646;7.078;2022-08-25T08:36:56;27.40;99.90
35613;DHT22;22054;51.646;7.078;2022-08-25T08:39:22;27.30;99.90
35613;DHT22;22054;51.646;7.078;2022-08-25T08:41:54;27.60;99.90
35613;DHT22;22054;51.646;7.078;2022-08-25T08:52:32;27.80;99.90
35613;DHT22;22054;51.646;7.078;2022-08-25T08:55:03;27.70;99.90
35613;DHT22;22054;51.646;7.078;2022-08-25T08:57:34;27.80;99.90
35613;DHT22;22054;51.646;7.078;2022-08-25T09:00:04;27.70;99.90
35613;DHT22;22054;51.646;7.078;2022-08-25T09:02:32;28.00;99.90
35613;DHT22;22054;51.646;7.078;2022-08-25T09:05:01;28.40;99.90
35613;DHT22;22054;51.646;7.078;2022-08-25T09:07:39;28.30;99.90
35613;DHT22;22054;51.646;7.078;2022-08-25T09:10:08;28.50;99.90
35613;DHT22;22054;51.646;7.078;2022-08-25T09:20:35;28.80;99.90
35613;DHT22;22054;51.646;7.078;2022-08-25T09:28:49;29.10;99.90
35613;DHT22;22054;51.646;7.078;2022-08-25T09:31:26;29.20;99.90
35613;DHT22;22054;51.646;7.078;2022-08-25T09:33:57;29.30;99.90
35613;DHT22;22054;51.646;7.078;2022-08-25T09:36:25;29.30;92.20
35613;DHT22;22054;51.646;7.078;2022-08-25T09:38:51;29.40;90.80
35613;DHT22;22054;51.646;7.078;2022-08-25T09:41:17;29.40;79.10
35613;DHT22;22054;51.646;7.078;2022-08-25T09:44:05;29.50;71.60
35613;DHT22;22054;51.646;7.078;2022-08-25T09:46:41;29.70;59.40
35613;DHT22;22054;51.646;7.078;2022-08-25T09:49:19;29.90;50.90
35613;DHT22;22054;51.646;7.078;2022-08-25T09:51:45;29.50;27.80
35613;DHT22;22054;51.646;7.078;2022-08-25T09:56:47;29.90;8.00
35613;DHT22;22054;51.646;7.078;2022-08-25T09:59:21;29.90;8.60
35613;DHT22;22054;51.646;7.078;2022-08-25T10:01:56;30.20;1.00
35613;DHT22;22054;51.646;7.078;2022-08-25T10:04:27;30.40;1.00
35613;DHT22;22054;51.646;7.078;2022-08-25T10:06:56;30.40;1.00
35613;DHT22;22054;51.646;7.078;2022-08-25T10:09:33;30.40;1.00
35613;DHT22;22054;51.646;7.078;2022-08-25T10:12:14;30.50;1.00
35613;DHT22;22054;51.646;7.078;2022-08-25T10:14:41;30.60;1.00
35613;DHT22;22054;51.646;7.078;2022-08-25T10:17:17;30.50;1.00
35613;DHT22;22054;51.646;7.078;2022-08-25T10:19:51;30.60;1.00
35613;DHT22;22054;51.646;7.078;2022-08-25T10:22:40;30.80;1.00
35613;DHT22;22054;51.646;7.078;2022-08-25T10:25:10;30.80;1.00
35613;DHT22;22054;51.646;7.078;2022-08-25T10:30:19;30.80;1.00
35613;DHT22;22054;51.646;7.078;2022-08-25T10:32:53;30.90;1.00
35613;DHT22;22054;51.646;7.078;2022-08-25T10:35:55;31.00;1.00
35613;DHT22;22054;51.646;7.078;2022-08-25T10:41:04;31.20;1.00
35613;DHT22;22054;51.646;7.078;2022-08-25T10:46:55;31.40;1.00
35613;DHT22;22054;51.646;7.078;2022-08-25T10:49:18;31.40;1.00
35613;DHT22;22054;51.646;7.078;2022-08-25T10:51:59;31.80;1.00
35613;DHT22;22054;51.646;7.078;2022-08-25T10:57:22;31.70;1.00
35613;DHT22;22054;51.646;7.078;2022-08-25T10:59:59;32.00;1.00
35613;DHT22;22054;51.646;7.078;2022-08-25T11:02:43;32.10;1.00
35613;DHT22;22054;51.646;7.078;2022-08-25T11:05:25;32.40;1.00
35613;DHT22;22054;51.646;7.078;2022-08-25T11:07:53;32.30;1.00
35613;DHT22;22054;51.646;7.078;2022-08-25T11:10:36;32.50;1.00
35613;DHT22;22054;51.646;7.078;2022-08-25T11:13:06;32.50;1.00
35613;DHT22;22054;51.646;7.078;2022-08-25T11:15:40;32.70;1.00
35613;DHT22;22054;51.646;7.078;2022-08-25T11:18:15;32.80;1.00
35613;DHT22;22054;51.646;7.078;2022-08-25T11:20:43;33.40;1.00
35613;DHT22;22054;51.646;7.078;2022-08-25T11:23:21;33.50;1.00
35613;DHT22;22054;51.646;7.078;2022-08-25T11:25:51;34.30;1.00
35613;DHT22;22054;51.646;7.078;2022-08-25T11:28:25;34.90;1.00
35613;DHT22;22054;51.646;7.078;2022-08-25T11:30:56;35.90;1.00
35613;DHT22;22054;51.646;7.078;2022-08-25T11:33:23;35.50;1.00
35613;DHT22;22054;51.646;7.078;2022-08-25T11:35:54;36.50;1.00
35613;DHT22;22054;51.646;7.078;2022-08-25T11:49:53;39.70;1.00
35613;DHT22;22054;51.646;7.078;2022-08-25T11:55:04;40.80;1.00
35613;DHT22;22054;51.646;7.078;2022-08-25T11:57:37;41.30;1.00
35613;DHT22;22054;51.646;7.078;2022-08-25T12:03:44;42.10;1.00
35613;DHT22;22054;51.646;7.078;2022-08-25T12:27:24;44.10;1.00
35613;DHT22;22054;51.646;7.078;2022-08-25T12:30:03;44.20;1.00
35613;DHT22;22054;51.646;7.078;2022-08-25T12:37:54;45.30;1.00
35613;DHT22;22054;51.646;7.078;2022-08-25T12:40:32;46.00;1.00
35613;DHT22;22054;51.646;7.078;2022-08-25T12:43:43;46.40;1.00
35613;DHT22;22054;51.646;7.078;2022-08-25T12:48:57;44.90;1.00
35613;DHT22;22054;51.646;7.078;2022-08-25T12:54:10;45.30;1.00
35613;DHT22;22054;51.646;7.078;2022-08-25T12:56:40;46.10;1.00
35613;DHT22;22054;51.646;7.078;2022-08-25T12:59:14;46.40;1.00
35613;DHT22;22054;51.646;7.078;2022-08-25T13:09:44;42.30;1.00
35613;DHT22;22054;51.646;7.078;2022-08-25T13:18:20;42.80;1.00
35613;DHT22;22054;51.646;7.078;2022-08-25T13:20:48;43.00;1.00
35613;DHT22;22054;51.646;7.078;2022-08-25T13:23:19;43.90;1.00
35613;DHT22;22054;51.646;7.078;2022-08-25T13:25:50;43.60;1.00
35613;DHT22;22054;51.646;7.078;2022-08-25T13:28:21;44.40;1.00
35613;DHT22;22054;51.646;7.078;2022-08-25T13:30:58;44.60;1.00
35613;DHT22;22054;51.646;7.078;2022-08-25T13:33:27;45.70;1.00
35613;DHT22;22054;51.646;7.078;2022-08-25T13:35:54;45.70;1.00
35613;DHT22;22054;51.646;7.078;2022-08-25T13:38:39;45.90;1.00
35613;DHT22;22054;51.646;7.078;2022-08-25T13:41:07;45.70;1.00
35613;DHT22;22054;51.646;7.078;2022-08-25T13:43:34;44.90;1.00
35613;DHT22;22054;51.646;7.078;2022-08-25T13:46:00;44.30;1.00
35613;DHT22;22054;51.646;7.078;2022-08-25T13:48:34;44.20;1.00
35613;DHT22;22054;51.646;7.078;2022-08-25T13:51:23;44.50;1.00
35613;DHT22;22054;51.646;7.078;2022-08-25T13:53:59;45.70;1.00
35613;DHT22;22054;51.646;7.078;2022-08-25T13:58:57;46.90;1.00
35613;DHT22;22054;51.646;7.078;2022-08-25T14:01:25;46.20;1.00
35613;DHT22;22054;51.646;7.078;2022-08-25T14:03:56;46.00;1.00
35613;DHT22;22054;51.646;7.078;2022-08-25T14:06:42;45.90;1.00
35613;DHT22;22054;51.646;7.078;2022-08-25T14:09:12;46.50;1.00
35613;DHT22;22054;51.646;7.078;2022-08-25T14:11:56;45.30;1.00
35613;DHT22;22054;51.646;7.078;2022-08-25T14:16:49;43.20;1.00
35613;DHT22;22054;51.646;7.078;2022-08-25T14:19:17;42.50;1.00
35613;DHT22;22054;51.646;7.078;2022-08-25T14:21:45;43.50;1.00
35613;DHT22;22054;51.646;7.078;2022-08-25T14:24:15;44.70;1.00
35613;DHT22;22054;51.646;7.078;2022-08-25T14:26:41;44.60;1.00
35613;DHT22;22054;51.646;7.078;2022-08-25T14:29:07;45.40;1.00
35613;DHT22;22054;51.646;7.078;2022-08-25T14:31:33;46.30;1.00
35613;DHT22;22054;51.646;7.078;2022-08-25T14:34:04;46.90;1.00
35613;DHT22;22054;51.646;7.078;2022-08-25T14:36:33;47.30;1.00
35613;DHT22;22054;51.646;7.078;2022-08-25T14:38:58;48.00;1.00
35613;DHT22;22054;51.646;7.078;2022-08-25T14:41:26;48.30;1.00
35613;DHT22;22054;51.646;7.078;2022-08-25T14:43:51;48.00;1.00
35613;DHT22;22054;51.646;7.078;2022-08-25T14:46:21;48.20;1.00
35613;DHT22;22054;51.646;7.078;2022-08-25T14:48:49;48.00;1.00
35613;DHT22;22054;51.646;7.078;2022-08-25T14:51:18;47.70;1.00
35613;DHT22;22054;51.646;7.078;2022-08-25T14:53:44;47.60;1.00
35613;DHT22;22054;51.646;7.078;2022-08-25T14:56:10;46.90;1.00
35613;DHT22;22054;51.646;7.078;2022-08-25T14:58:36;46.10;1.00
35613;DHT22;22054;51.646;7.078;2022-08-25T15:01:02;45.40;1.00
35613;DHT22;22054;51.646;7.078;2022-08-25T15:03:31;43.90;1.00
35613;DHT22;22054;51.646;7.078;2022-08-25T15:05:59;42.20;1.00
35613;DHT22;22054;51.646;7.078;2022-08-25T15:08:25;40.70;1.00
35613;DHT22;22054;51.646;7.078;2022-08-25T15:11:09;40.00;1.00
35613;DHT22;22054;51.646;7.078;2022-08-25T15:13:35;39.20;1.00
35613;DHT22;22054;51.646;7.078;2022-08-25T15:16:01;38.30;1.00
35613;DHT22;22054;51.646;7.078;2022-08-25T15:18:27;37.90;1.00
35613;DHT22;22054;51.646;7.078;2022-08-25T15:20:53;37.80;1.00
35613;DHT22;22054;51.646;7.078;2022-08-25T15:23:19;37.20;1.00
35613;DHT22;22054;51.646;7.078;2022-08-25T15:25:45;36.60;1.00
35613;DHT22;22054;51.646;7.078;2022-08-25T15:28:12;36.10;1.00
35613;DHT22;22054;51.646;7.078;2022-08-25T15:30:38;35.60;1.00
35613;DHT22;22054;51.646;7.078;2022-08-25T15:33:03;35.30;1.00
35613;DHT22;22054;51.646;7.078;2022-08-25T15:35:29;35.00;1.00
35613;DHT22;22054;51.646;7.078;2022-08-25T15:37:55;34.90;1.00
35613;DHT22;22054;51.646;7.078;2022-08-25T15:40:20;34.90;1.00
35613;DHT22;22054;51.646;7.078;2022-08-25T15:42:46;35.30;1.00
35613;DHT22;22054;51.646;7.078;2022-08-25T15:45:12;36.40;1.00
35613;DHT22;22054;51.646;7.078;2022-08-25T15:47:38;37.90;1.00
35613;DHT22;22054;51.646;7.078;2022-08-25T15:50:06;39.60;1.00
35613;DHT22;22054;51.646;7.078;2022-08-25T15:52:34;41.00;1.00
35613;DHT22;22054;51.646;7.078;2022-08-25T15:55:00;41.60;1.00
35613;DHT22;22054;51.646;7.078;2022-08-25T15:57:25;41.70;1.00
35613;DHT22;22054;51.646;7.078;2022-08-25T15:59:52;42.20;1.00
35613;DHT22;22054;51.646;7.078;2022-08-25T16:02:17;42.30;1.00
35613;DHT22;22054;51.646;7.078;2022-08-25T16:04:43;41.60;1.00
35613;DHT22;22054;51.646;7.078;2022-08-25T16:07:09;40.30;1.00
35613;DHT22;22054;51.646;7.078;2022-08-25T16:09:34;38.90;1.00
35613;DHT22;22054;51.646;7.078;2022-08-25T16:12:00;38.20;1.00
35613;DHT22;22054;51.646;7.078;2022-08-25T16:14:26;37.30;1.00
35613;DHT22;22054;51.646;7.078;2022-08-25T16:16:52;37.20;1.00
35613;DHT22;22054;51.646;7.078;2022-08-25T16:19:17;37.50;1.00
35613;DHT22;22054;51.646;7.078;2022-08-25T16:21:43;37.00;1.00
35613;DHT22;22054;51.646;7.078;2022-08-25T16:24:09;36.10;1.00
35613;DHT22;22054;51.646;7.078;2022-08-25T16:26:35;35.40;1.00
35613;DHT22;22054;51.646;7.078;2022-08-25T16:29:05;35.10;1.00
35613;DHT22;22054;51.646;7.078;2022-08-25T16:31:31;34.80;1.00
35613;DHT22;22054;51.646;7.078;2022-08-25T16:33:56;34.50;1.00
35613;DHT22;22054;51.646;7.078;2022-08-25T16:36:23;34.30;1.00
35613;DHT22;22054;51.646;7.078;2022-08-25T16:38:49;34.20;1.00
35613;DHT22;22054;51.646;7.078;2022-08-25T16:41:17;33.90;1.00
35613;DHT22;22054;51.646;7.078;2022-08-25T16:43:44;33.60;1.00
35613;DHT22;22054;51.646;7.078;2022-08-25T16:46:11;33.50;1.00
35613;DHT22;22054;51.646;7.078;2022-08-25T16:48:38;33.40;1.00
35613;DHT22;22054;51.646;7.078;2022-08-25T16:51:07;33.30;1.00
35613;DHT22;22054;51.646;7.078;2022-08-25T16:53:34;33.00;1.00
35613;DHT22;22054;51.646;7.078;2022-08-25T16:56:19;33.20;1.00
35613;DHT22;22054;51.646;7.078;2022-08-25T16:58:56;33.10;1.00
35613;DHT22;22054;51.646;7.078;2022-08-25T17:01:23;33.00;1.00
35613;DHT22;22054;51.646;7.078;2022-08-25T17:03:50;32.90;1.00
35613;DHT22;22054;51.646;7.078;2022-08-25T17:06:17;32.90;1.00
35613;DHT22;22054;51.646;7.078;2022-08-25T17:08:43;32.90;1.00
35613;DHT22;22054;51.646;7.078;2022-08-25T17:11:10;32.90;1.00
35613;DHT22;22054;51.646;7.078;2022-08-25T17:13:40;33.00;1.00
35613;DHT22;22054;51.646;7.078;2022-08-25T17:16:07;32.70;1.00
35613;DHT22;22054;51.646;7.078;2022-08-25T17:18:33;32.80;1.00
35613;DHT22;22054;51.646;7.078;2022-08-25T17:21:00;32.50;1.00
35613;DHT22;22054;51.646;7.078;2022-08-25T17:23:28;32.20;1.00
35613;DHT22;22054;51.646;7.078;2022-08-25T17:25:55;32.30;1.00
35613;DHT22;22054;51.646;7.078;2022-08-25T17:28:20;32.20;1.00
35613;DHT22;22054;51.646;7.078;2022-08-25T17:30:46;31.90;1.00
35613;DHT22;22054;51.646;7.078;2022-08-25T17:33:13;32.00;1.00
35613;DHT22;22054;51.646;7.078;2022-08-25T17:35:39;31.90;1.00
35613;DHT22;22054;51.646;7.078;2022-08-25T17:38:06;31.90;1.00
35613;DHT22;22054;51.646;7.078;2022-08-25T17:40:31;31.80;1.00
35613;DHT22;22054;51.646;7.078;2022-08-25T17:42:57;31.60;1.00